Time;durP1;ratioP1;P1;durP2;ratioP2;P2;SDS_P1;SDS_P2;PMS_P1;PMS_P2;Temp;Humidity;BMP_temperature;BMP_pressure;BME280_temperature;BME280_humidity;BME280_pressure;Samples;Min_cycle;Max_cycle;Signal;HPM_P1;HPM_P2
2022/05/28 00:02:05;;;;;;;3.80;0.87;;;12.00;99.90;;;;;;5041791;28;20100;-67
2022/05/28 00:04:30;;;;;;;7.67;1.10;;;11.90;99.90;;;;;;5044845;28;20041;-68
2022/05/28 00:06:56;;;;;;;3.08;0.65;;;11.90;99.90;;;;;;5035549;28;20116;-67
2022/05/28 00:09:22;;;;;;;4.77;1.20;;;11.90;99.90;;;;;;5035280;28;20398;-68
2022/05/28 00:11:48;;;;;;;4.33;0.70;;;11.80;99.90;;;;;;5044998;28;20121;-67
2022/05/28 00:14:14;;;;;;;5.55;1.08;;;11.80;99.90;;;;;;5040696;28;20072;-67
2022/05/28 00:16:41;;;;;;;3.80;0.98;;;11.80;99.90;;;;;;5043641;28;20095;-68
2022/05/28 00:19:08;;;;;;;2.50;0.68;;;11.70;99.90;;;;;;5042037;28;20045;-68
2022/05/28 00:21:34;;;;;;;;;;;11.70;99.90;;;;;;5041393;28;20048;-68
2022/05/28 00:23:59;;;;;;;4.22;0.50;;;11.60;99.90;;;;;;5035628;28;19921;-67
2022/05/28 00:26:25;;;;;;;3.67;0.98;;;11.60;99.90;;;;;;5038380;28;20040;-68
2022/05/28 00:28:52;;;;;;;5.60;0.90;;;11.60;99.90;;;;;;5038705;28;20047;-67
2022/05/28 00:31:18;;;;;;;2.95;0.73;;;11.60;99.90;;;;;;5025648;28;20051;-67
2022/05/28 00:33:44;;;;;;;6.05;0.77;;;11.50;99.90;;;;;;5038177;28;20109;-68
2022/05/28 00:36:11;;;;;;;2.63;0.50;;;11.50;99.90;;;;;;5039424;28;20041;-68
2022/05/28 00:38:39;;;;;;;3.72;0.50;;;11.50;99.90;;;;;;5039608;28;20394;-68
2022/05/28 00:41:05;;;;;;;3.30;0.80;;;11.50;99.90;;;;;;5041119;28;20037;-68
2022/05/28 00:43:31;;;;;;;;;;;11.40;99.90;;;;;;5037631;28;20047;-67
2022/05/28 00:46:04;;;;;;;3.25;0.90;;;11.40;99.90;;;;;;5038336;28;19917;-68
2022/05/28 00:48:34;;;;;;;3.00;0.40;;;11.40;99.90;;;;;;5037055;28;20067;-66
2022/05/28 00:51:09;;;;;;;5.22;0.80;;;11.30;99.90;;;;;;5030306;28;20045;-68
2022/05/28 00:53:36;;;;;;;4.20;0.80;;;11.40;99.90;;;;;;5033615;28;20166;-68
2022/05/28 00:56:05;;;;;;;9.10;0.90;;;11.30;99.90;;;;;;5035823;28;20091;-68
2022/05/28 00:58:32;;;;;;;2.97;0.75;;;11.30;99.90;;;;;;5042270;28;20036;-68
2022/05/28 01:00:58;;;;;;;3.55;0.60;;;11.40;99.90;;;;;;5044567;28;20045;-68
2022/05/28 01:03:43;;;;;;;3.85;0.98;;;11.30;99.90;;;;;;5045485;28;20453;-68
2022/05/28 01:06:19;;;;;;;2.65;0.52;;;11.30;99.90;;;;;;5035176;28;20053;-68
2022/05/28 01:08:52;;;;;;;4.32;0.70;;;11.30;99.90;;;;;;5042990;28;20572;-67
2022/05/28 01:11:35;;;;;;;2.83;0.60;;;11.30;99.90;;;;;;5036727;28;20036;-68
2022/05/28 01:14:29;;;;;;;4.95;1.10;;;11.30;99.90;;;;;;5043606;28;20519;-67
2022/05/28 01:17:00;;;;;;;5.55;0.88;;;11.30;99.90;;;;;;5043380;28;20041;-67
2022/05/28 01:19:44;;;;;;;7.38;1.00;;;11.30;99.90;;;;;;5099272;22;20166;-70
2022/05/28 01:22:23;;;;;;;4.47;0.60;;;11.20;99.90;;;;;;5038617;28;20045;-70
2022/05/28 01:25:08;;;;;;;3.85;0.70;;;11.10;99.90;;;;;;5034115;28;20048;-69
2022/05/28 01:27:39;;;;;;;2.40;0.70;;;11.10;99.90;;;;;;5023563;28;20128;-70
2022/05/28 01:30:08;;;;;;;3.58;0.68;;;11.10;99.90;;;;;;5033459;28;20305;-71
2022/05/28 01:32:35;;;;;;;2.72;0.80;;;11.10;99.90;;;;;;5024690;28;20166;-70
2022/05/28 01:35:07;;;;;;;5.10;0.50;;;11.10;99.90;;;;;;5039569;28;20047;-70
2022/05/28 01:37:34;;;;;;;4.75;1.35;;;11.00;99.90;;;;;;5041994;28;20029;-70
2022/05/28 01:40:04;;;;;;;4.60;0.70;;;11.00;99.90;;;;;;5039016;28;20359;-70
2022/05/28 01:42:30;;;;;;;5.45;1.13;;;11.00;99.90;;;;;;5045653;28;20041;-70
2022/05/28 01:44:58;;;;;;;4.18;0.50;;;11.00;99.90;;;;;;5038828;28;20127;-69
2022/05/28 01:47:25;;;;;;;5.88;0.90;;;11.00;99.90;;;;;;5024277;28;20040;-70
2022/05/28 01:49:52;;;;;;;4.60;0.50;;;11.00;99.90;;;;;;5023877;28;20094;-70
2022/05/28 01:52:20;;;;;;;3.75;0.70;;;11.00;99.90;;;;;;5031060;28;20061;-69
2022/05/28 01:54:48;;;;;;;4.28;0.70;;;11.00;99.90;;;;;;5043736;28;20041;-70
2022/05/28 01:57:15;;;;;;;6.35;0.82;;;10.90;99.90;;;;;;5042399;28;20037;-70
2022/05/28 01:59:41;;;;;;;3.63;0.88;;;11.00;99.90;;;;;;5033876;28;20044;-70
2022/05/28 02:02:10;;;;;;;3.40;0.90;;;10.90;99.90;;;;;;5039060;28;20102;-70
2022/05/28 02:04:39;;;;;;;7.00;1.10;;;10.90;99.90;;;;;;5039938;28;20690;-70
2022/05/28 02:07:05;;;;;;;3.78;0.75;;;10.90;99.90;;;;;;5014559;28;20041;-70
2022/05/28 02:09:42;;;;;;;5.95;0.85;;;10.90;99.90;;;;;;5038358;28;20065;-70
2022/05/28 02:12:29;;;;;;;4.93;1.10;;;10.90;99.90;;;;;;5001393;28;20585;-70
2022/05/28 02:14:58;;;;;;;4.30;0.77;;;10.90;99.90;;;;;;5036511;28;20044;-69
2022/05/28 02:17:39;;;;;;;5.85;1.02;;;10.90;99.90;;;;;;5022152;28;20033;-70
2022/05/28 02:20:15;;;;;;;4.10;0.70;;;10.90;99.90;;;;;;5025859;28;20236;-70
2022/05/28 02:22:58;;;;;;;2.85;0.90;;;10.90;99.90;;;;;;5034762;28;20096;-70
2022/05/28 02:25:34;;;;;;;5.05;1.67;;;10.90;99.90;;;;;;5038743;28;20033;-70
2022/05/28 02:28:03;;;;;;;5.35;0.90;;;10.90;99.90;;;;;;5049448;28;20037;-70
2022/05/28 02:30:30;;;;;;;2.10;0.60;;;10.90;99.90;;;;;;5017944;28;20406;-70
2022/05/28 02:33:06;;;;;;;5.43;1.05;;;10.90;99.90;;;;;;5038393;28;20528;-70
2022/05/28 02:35:32;;;;;;;4.70;1.10;;;11.00;99.90;;;;;;5037597;28;20726;-70
2022/05/28 02:37:58;;;;;;;3.28;0.63;;;10.90;99.90;;;;;;5033138;28;20136;-69
2022/05/28 02:40:24;;;;;;;6.68;0.95;;;10.90;99.90;;;;;;5024920;28;20471;-70
2022/05/28 02:42:49;;;;;;;5.97;0.77;;;10.90;99.90;;;;;;5031220;28;20048;-70
2022/05/28 02:45:15;;;;;;;8.33;0.97;;;10.90;99.90;;;;;;5040188;28;20498;-70
2022/05/28 02:47:41;;;;;;;4.43;1.38;;;10.90;99.90;;;;;;5043407;28;20037;-69
2022/05/28 02:50:08;;;;;;;2.30;0.80;;;10.90;99.90;;;;;;5041892;28;20170;-70
2022/05/28 02:52:34;;;;;;;2.50;0.75;;;10.90;99.90;;;;;;5042459;28;20044;-70
2022/05/28 02:55:00;;;;;;;5.03;0.98;;;10.90;99.90;;;;;;5048529;28;20040;-70
2022/05/28 02:57:26;;;;;;;5.77;0.80;;;10.90;99.90;;;;;;5038814;28;20036;-69
2022/05/28 02:59:51;;;;;;;2.53;0.90;;;10.90;99.90;;;;;;5037056;28;20503;-69
2022/05/28 03:02:17;;;;;;;3.57;0.63;;;10.90;99.90;;;;;;5024700;28;20049;-70
2022/05/28 03:04:42;;;;;;;7.63;0.80;;;10.90;99.90;;;;;;5045317;28;20059;-69
2022/05/28 03:07:08;;;;;;;3.10;1.00;;;10.90;99.90;;;;;;5037610;28;20092;-70
2022/05/28 03:09:34;;;;;;;7.93;1.43;;;10.90;99.90;;;;;;5007586;28;20535;-70
2022/05/28 03:11:59;;;;;;;4.07;0.93;;;10.90;99.90;;;;;;5037404;28;20045;-69
2022/05/28 03:14:25;;;;;;;3.22;0.82;;;10.90;99.90;;;;;;5029484;28;20038;-70
2022/05/28 03:16:52;;;;;;;9.10;1.30;;;10.90;99.90;;;;;;5013831;28;20045;-70
2022/05/28 03:19:18;;;;;;;5.25;1.70;;;10.90;99.90;;;;;;5009042;28;20039;-70
2022/05/28 03:21:44;;;;;;;3.28;0.70;;;10.90;99.90;;;;;;5048352;28;20041;-69
2022/05/28 03:24:10;;;;;;;7.55;1.10;;;10.90;99.90;;;;;;5025023;28;20562;-70
2022/05/28 03:26:36;;;;;;;7.80;1.48;;;10.90;99.90;;;;;;5033058;28;20040;-70
2022/05/28 03:29:03;;;;;;;4.43;1.03;;;10.90;99.90;;;;;;5039546;28;20081;-69
2022/05/28 03:31:29;;;;;;;7.47;0.98;;;10.90;99.90;;;;;;5023362;28;20386;-70
2022/05/28 03:33:56;;;;;;;6.57;1.10;;;10.90;99.90;;;;;;5004019;28;20575;-69
2022/05/28 03:36:22;;;;;;;10.68;1.45;;;10.90;99.90;;;;;;5044146;28;20501;-70
2022/05/28 03:38:48;;;;;;;5.50;1.05;;;10.90;99.90;;;;;;5021723;28;20786;-70
2022/05/28 03:41:13;;;;;;;6.50;1.00;;;10.90;99.90;;;;;;5035876;28;20136;-69
2022/05/28 03:43:39;;;;;;;7.57;1.40;;;10.90;99.90;;;;;;5020045;28;20129;-69
2022/05/28 03:46:05;;;;;;;6.97;0.97;;;10.90;99.90;;;;;;5016140;28;20037;-70
2022/05/28 03:48:33;;;;;;;6.97;1.80;;;10.90;99.90;;;;;;5031218;28;20041;-69
2022/05/28 03:50:59;;;;;;;5.30;1.60;;;10.90;99.90;;;;;;5025063;28;20494;-69
2022/05/28 03:53:24;;;;;;;5.27;1.23;;;10.90;99.90;;;;;;5035622;28;20060;-70
2022/05/28 03:55:50;;;;;;;8.83;1.10;;;10.90;99.90;;;;;;5034395;28;20076;-69
2022/05/28 03:58:16;;;;;;;7.10;1.00;;;10.90;99.90;;;;;;5016845;28;20547;-69
2022/05/28 04:00:42;;;;;;;8.57;1.37;;;10.90;99.90;;;;;;5009110;28;20037;-70
2022/05/28 04:03:08;;;;;;;10.17;1.80;;;10.90;99.90;;;;;;5019425;28;20370;-69
2022/05/28 04:05:36;;;;;;;4.45;0.90;;;10.90;99.90;;;;;;5033272;28;20030;-70
2022/05/28 04:08:02;;;;;;;8.48;0.77;;;10.90;99.90;;;;;;5021974;28;20055;-69
2022/05/28 04:10:27;;;;;;;6.17;1.00;;;10.90;99.90;;;;;;5033078;28;20037;-70
2022/05/28 04:12:53;;;;;;;3.03;1.00;;;10.90;99.90;;;;;;5020467;28;20049;-69
2022/05/28 04:15:19;;;;;;;6.80;1.03;;;10.90;99.90;;;;;;5010709;28;20048;-69
2022/05/28 04:17:44;;;;;;;6.28;1.25;;;11.00;99.90;;;;;;5014750;28;20045;-70
2022/05/28 04:20:11;;;;;;;8.93;1.20;;;11.00;99.90;;;;;;5019708;28;20497;-70
2022/05/28 04:22:37;;;;;;;10.10;1.48;;;11.00;99.90;;;;;;5038046;28;20478;-69
2022/05/28 04:25:03;;;;;;;10.77;1.20;;;10.90;99.90;;;;;;5011354;28;20076;-69
2022/05/28 04:27:29;;;;;;;;;;;11.00;99.90;;;;;;5013411;28;20300;-69
2022/05/28 04:29:54;;;;;;;7.00;0.95;;;10.90;99.90;;;;;;5032008;28;20388;-69
2022/05/28 04:32:20;;;;;;;7.70;1.40;;;10.90;99.90;;;;;;5044232;28;20102;-69
2022/05/28 04:34:46;;;;;;;3.63;0.80;;;10.90;99.90;;;;;;5038490;28;20241;-69
2022/05/28 04:37:11;;;;;;;3.37;1.10;;;11.00;99.90;;;;;;5031324;28;20069;-70
2022/05/28 04:39:37;;;;;;;4.70;0.90;;;11.00;99.90;;;;;;5041455;28;20041;-69
2022/05/28 04:42:03;;;;;;;4.43;1.00;;;11.00;99.90;;;;;;5010625;28;20071;-69
2022/05/28 04:44:28;;;;;;;3.58;1.15;;;11.00;99.90;;;;;;5032204;28;20357;-69
2022/05/28 04:46:54;;;;;;;5.77;1.17;;;11.00;99.90;;;;;;5025124;28;20043;-69
2022/05/28 04:49:19;;;;;;;9.80;1.30;;;11.00;99.90;;;;;;5021457;28;20172;-70
2022/05/28 04:51:45;;;;;;;3.93;1.13;;;11.00;99.90;;;;;;5038305;28;20063;-69
2022/05/28 04:54:10;;;;;;;5.57;1.60;;;11.10;99.90;;;;;;5036269;28;20068;-69
2022/05/28 04:56:36;;;;;;;5.80;1.20;;;11.10;99.90;;;;;;5033428;28;20033;-69
2022/05/28 04:59:02;;;;;;;3.50;0.87;;;11.10;99.90;;;;;;5034882;28;20076;-69
2022/05/28 05:01:27;;;;;;;10.27;1.17;;;11.10;99.90;;;;;;5016707;28;20040;-69
2022/05/28 05:03:53;;;;;;;6.33;1.27;;;11.20;99.90;;;;;;5017018;28;20357;-69
2022/05/28 05:06:19;;;;;;;5.80;1.43;;;11.20;99.90;;;;;;5039080;28;20032;-69
2022/05/28 05:08:45;;;;;;;8.47;1.43;;;11.20;99.90;;;;;;5026278;28;20049;-69
2022/05/28 05:11:11;;;;;;;8.80;2.05;;;11.20;99.90;;;;;;5033857;28;20043;-70
2022/05/28 05:13:37;;;;;;;6.63;1.17;;;11.20;99.90;;;;;;4994578;28;20382;-69
2022/05/28 05:16:10;;;;;;;11.50;1.52;;;11.30;99.90;;;;;;5035379;28;20037;-70
2022/05/28 05:18:36;;;;;;;5.28;1.25;;;11.30;99.90;;;;;;5028339;28;20044;-69
2022/05/28 05:21:02;;;;;;;16.27;1.53;;;11.40;99.90;;;;;;5027081;28;20509;-70
2022/05/28 05:23:28;;;;;;;9.70;1.92;;;11.30;99.90;;;;;;5040281;28;20102;-70
2022/05/28 05:25:53;;;;;;;3.57;0.90;;;11.40;99.90;;;;;;5017939;28;20053;-70
2022/05/28 05:28:19;;;;;;;4.67;0.60;;;11.30;99.90;;;;;;5042347;28;20037;-70
2022/05/28 05:30:44;;;;;;;3.97;0.50;;;11.20;99.90;;;;;;5039043;28;20469;-70
2022/05/28 05:33:10;;;;;;;4.47;0.77;;;11.10;99.90;;;;;;5034578;28;20102;-71
2022/05/28 05:35:36;;;;;;;0.50;0.30;;;10.90;99.90;;;;;;5024944;28;20037;-70
2022/05/28 05:38:05;;;;;;;3.70;0.70;;;10.90;99.90;;;;;;5042181;28;20045;-71
2022/05/28 05:40:33;;;;;;;2.75;0.75;;;10.80;99.90;;;;;;5022799;28;20044;-70
2022/05/28 05:42:59;;;;;;;5.18;1.00;;;10.80;99.90;;;;;;5041212;28;20068;-70
2022/05/28 05:45:24;;;;;;;2.47;1.20;;;10.80;99.90;;;;;;5046521;28;20537;-71
2022/05/28 05:47:50;;;;;;;6.23;1.40;;;10.70;99.90;;;;;;5039102;28;20116;-71
2022/05/28 05:50:16;;;;;;;2.93;1.10;;;10.70;99.90;;;;;;5041859;28;20189;-71
2022/05/28 05:52:41;;;;;;;3.80;0.93;;;10.70;99.90;;;;;;5041400;28;20033;-70
2022/05/28 05:55:07;;;;;;;7.03;1.60;;;10.70;99.90;;;;;;5043479;28;20045;-71
2022/05/28 05:57:33;;;;;;;3.53;0.85;;;10.70;99.90;;;;;;5022156;28;20049;-70
2022/05/28 05:59:59;;;;;;;6.40;1.10;;;10.80;99.90;;;;;;5041694;28;20332;-71
2022/05/28 06:02:24;;;;;;;3.37;0.97;;;10.90;99.90;;;;;;5038840;28;20103;-71
2022/05/28 06:04:50;;;;;;;6.10;1.03;;;10.90;99.90;;;;;;5045453;28;20129;-70
2022/05/28 06:07:15;;;;;;;3.40;1.03;;;11.00;99.90;;;;;;5034550;28;20398;-70
2022/05/28 06:09:41;;;;;;;8.13;1.10;;;11.10;99.90;;;;;;5008748;28;20064;-70
2022/05/28 06:12:07;;;;;;;7.63;1.37;;;11.10;99.90;;;;;;5021388;28;20045;-70
2022/05/28 06:14:32;;;;;;;10.13;1.65;;;11.30;99.90;;;;;;5032015;28;20057;-71
2022/05/28 06:16:58;;;;;;;5.17;1.30;;;11.30;99.90;;;;;;5036749;28;20367;-70
2022/05/28 06:19:24;;;;;;;8.02;1.63;;;11.40;99.90;;;;;;5018616;28;20300;-70
2022/05/28 06:21:50;;;;;;;3.43;1.60;;;11.50;99.90;;;;;;5041866;28;20498;-71
2022/05/28 06:24:15;;;;;;;6.23;1.33;;;11.50;99.90;;;;;;5037841;28;20083;-70
2022/05/28 06:26:41;;;;;;;8.43;1.37;;;11.60;99.90;;;;;;5009467;28;20034;-70
2022/05/28 06:29:06;;;;;;;6.17;1.70;;;11.70;99.90;;;;;;5031731;28;20555;-70
2022/05/28 06:31:34;;;;;;;6.93;1.40;;;11.70;99.90;;;;;;5017361;28;20035;-70
2022/05/28 06:33:59;;;;;;;12.50;1.50;;;11.70;99.90;;;;;;5022894;28;20052;-70
2022/05/28 06:36:25;;;;;;;6.90;1.20;;;11.70;99.90;;;;;;5049222;28;20115;-70
2022/05/28 06:38:50;;;;;;;12.30;1.90;;;11.70;99.90;;;;;;5031834;28;20040;-70
2022/05/28 06:41:16;;;;;;;5.80;1.27;;;11.80;99.90;;;;;;5021567;28;20068;-70
2022/05/28 06:43:42;;;;;;;6.47;1.33;;;11.80;99.90;;;;;;5023621;28;20033;-70
2022/05/28 06:46:09;;;;;;;7.67;1.23;;;11.90;99.90;;;;;;5033825;28;20044;-70
2022/05/28 06:48:38;;;;;;;5.47;1.30;;;11.90;99.90;;;;;;5035168;28;20066;-71
2022/05/28 06:51:05;;;;;;;5.97;1.50;;;12.00;99.90;;;;;;5021342;28;20047;-70
2022/05/28 06:53:40;;;;;;;6.57;1.33;;;12.00;99.90;;;;;;5040109;28;20044;-70
2022/05/28 06:56:08;;;;;;;5.32;1.83;;;12.10;99.90;;;;;;5017689;28;20048;-71
2022/05/28 06:58:33;;;;;;;10.02;1.10;;;12.10;99.90;;;;;;5016651;28;20040;-70
2022/05/28 07:01:00;;;;;;;9.57;1.87;;;12.00;99.90;;;;;;5023889;28;20041;-70
2022/05/28 07:03:27;;;;;;;8.20;1.85;;;12.00;99.90;;;;;;5032964;28;20080;-70
2022/05/28 07:05:54;;;;;;;9.25;1.70;;;12.10;99.90;;;;;;5041340;28;20110;-71
2022/05/28 07:08:19;;;;;;;5.45;1.40;;;12.10;99.90;;;;;;5017936;28;20044;-70
2022/05/28 07:10:51;;;;;;;6.57;1.07;;;12.00;99.90;;;;;;5018088;28;20065;-70
2022/05/28 07:13:18;;;;;;;8.80;1.63;;;12.10;99.90;;;;;;5026587;28;20291;-70
2022/05/28 07:15:44;;;;;;;5.18;1.60;;;12.10;99.90;;;;;;5021104;28;20401;-70
2022/05/28 07:18:10;;;;;;;7.37;1.93;;;12.20;99.90;;;;;;5043099;28;20047;-69
2022/05/28 07:20:36;;;;;;;7.28;1.48;;;12.20;99.90;;;;;;5081548;22;20598;-70
2022/05/28 07:23:14;;;;;;;7.35;1.77;;;12.30;99.90;;;;;;5041230;28;20050;-70
2022/05/28 07:25:40;;;;;;;7.82;2.13;;;12.30;99.90;;;;;;5033864;28;20043;-70
2022/05/28 07:31:02;;;;;;;7.32;1.20;;;12.40;99.90;;;;;;5057424;28;20272;-71
2022/05/28 07:33:29;;;;;;;7.22;1.45;;;12.40;99.90;;;;;;5057604;28;20867;-71
2022/05/28 07:35:57;;;;;;;11.82;1.70;;;12.40;99.90;;;;;;5040874;28;20071;-70
2022/05/28 07:38:25;;;;;;;9.63;1.33;;;12.40;99.90;;;;;;5059204;28;20040;-70
2022/05/28 07:40:51;;;;;;;11.20;1.35;;;12.50;99.90;;;;;;5046614;28;20086;-70
2022/05/28 07:43:17;;;;;;;5.35;0.90;;;12.50;99.90;;;;;;5044167;28;20037;-71
2022/05/28 07:45:43;;;;;;;;;;;12.50;99.90;;;;;;5040139;28;20044;-74
2022/05/28 07:48:10;;;;;;;4.95;1.20;;;12.50;99.90;;;;;;5050004;28;19955;-72
2022/05/28 07:50:36;;;;;;;6.10;1.90;;;12.50;99.90;;;;;;5058327;28;20118;-70
2022/05/28 07:53:02;;;;;;;9.63;1.30;;;12.50;99.90;;;;;;5058811;28;20177;-70
2022/05/28 07:55:28;;;;;;;9.30;1.20;;;12.50;99.90;;;;;;5049059;28;20037;-70
2022/05/28 07:57:54;;;;;;;9.02;2.22;;;12.60;99.90;;;;;;5044022;28;20051;-72
2022/05/28 08:00:20;;;;;;;7.40;1.50;;;12.60;99.90;;;;;;5049077;28;20182;-73
2022/05/28 08:02:46;;;;;;;6.13;1.88;;;12.50;99.90;;;;;;5041994;28;20292;-70
2022/05/28 08:05:12;;;;;;;2.63;1.47;;;12.50;99.90;;;;;;5064493;28;20294;-70
2022/05/28 08:07:38;;;;;;;7.63;1.40;;;12.50;99.90;;;;;;5059850;28;20063;-70
2022/05/28 08:10:04;;;;;;;6.30;1.80;;;12.60;99.90;;;;;;5058376;28;20048;-70
2022/05/28 08:12:30;;;;;;;10.68;1.75;;;12.60;99.90;;;;;;5062379;28;20534;-70
2022/05/28 08:14:56;;;;;;;8.15;1.67;;;12.70;99.90;;;;;;5032290;28;20149;-70
2022/05/28 08:17:21;;;;;;;5.03;1.23;;;12.70;99.90;;;;;;5039684;28;20127;-70
2022/05/28 08:19:47;;;;;;;8.95;1.83;;;12.80;99.90;;;;;;5048541;28;20069;-70
2022/05/28 08:24:58;;;;;;;11.05;1.98;;;12.90;99.90;;;;;;5058039;28;20149;-70
2022/05/28 08:27:23;;;;;;;8.20;1.55;;;12.90;99.90;;;;;;5042799;28;20114;-70
2022/05/28 08:29:49;;;;;;;7.07;1.40;;;12.90;99.90;;;;;;5045014;28;20037;-70
2022/05/28 08:32:18;;;;;;;6.18;1.40;;;12.90;99.90;;;;;;5038314;28;20465;-70
2022/05/28 08:34:44;;;;;;;10.68;1.00;;;12.90;99.90;;;;;;5029836;28;20039;-70
2022/05/28 08:37:11;;;;;;;6.72;1.40;;;12.90;99.90;;;;;;5061165;28;20162;-70
2022/05/28 08:39:37;;;;;;;7.45;1.55;;;12.90;99.90;;;;;;5048805;28;20088;-70
2022/05/28 08:42:03;;;;;;;;;;;13.00;99.90;;;;;;5059174;28;20429;-70
2022/05/28 08:44:35;;;;;;;6.93;1.20;;;13.10;99.90;;;;;;5043247;28;19927;-70
2022/05/28 08:47:28;;;;;;;5.85;1.40;;;13.20;99.90;;;;;;5021302;28;20040;-69
2022/05/28 08:49:54;;;;;;;5.97;1.20;;;13.20;99.90;;;;;;5022248;28;20037;-70
2022/05/28 08:52:22;;;;;;;7.90;1.33;;;13.20;99.90;;;;;;5038582;28;20076;-70
2022/05/28 08:54:58;;;;;;;8.25;1.20;;;13.30;99.90;;;;;;5045487;28;20048;-70
2022/05/28 08:57:45;;;;;;;12.57;2.00;;;13.40;99.90;;;;;;5048894;28;20036;-70
2022/05/28 09:00:14;;;;;;;4.13;1.00;;;13.50;99.90;;;;;;5040145;28;20065;-70
2022/05/28 09:02:48;;;;;;;7.38;0.80;;;13.60;99.90;;;;;;5056750;28;20049;-70
2022/05/28 09:05:54;;;;;;;4.97;1.08;;;13.60;99.90;;;;;;5040574;28;20098;-70
2022/05/28 09:08:29;;;;;;;3.38;0.70;;;13.60;99.90;;;;;;5023728;28;20051;-70
2022/05/28 09:10:58;;;;;;;4.25;1.15;;;13.70;99.90;;;;;;5027273;28;20572;-70
2022/05/28 09:13:40;;;;;;;8.27;1.35;;;13.70;99.90;;;;;;5042185;28;20997;-71
2022/05/28 09:16:11;;;;;;;8.30;0.88;;;13.70;99.90;;;;;;5023407;28;20451;-70
2022/05/28 09:18:39;;;;;;;5.65;1.13;;;13.60;99.90;;;;;;5062899;28;20166;-70
2022/05/28 09:21:07;;;;;;;7.00;1.10;;;13.60;99.90;;;;;;5060796;28;20049;-70
2022/05/28 09:23:45;;;;;;;3.78;0.88;;;13.70;99.90;;;;;;5037283;28;20052;-70
2022/05/28 09:26:13;;;;;;;5.82;0.90;;;13.70;99.90;;;;;;5051989;28;20037;-70
2022/05/28 09:28:42;;;;;;;8.80;1.40;;;13.80;99.90;;;;;;5039785;28;20381;-71
2022/05/28 09:31:50;;;;;;;3.65;1.10;;;13.90;99.90;;;;;;5040872;28;20054;-70
2022/05/28 09:34:37;;;;;;;;;;;14.00;99.90;;;;;;4935063;28;20047;-70
2022/05/28 09:37:12;;;;;;;4.70;1.08;;;14.10;99.90;;;;;;5061900;28;20018;-70
2022/05/28 09:39:41;;;;;;;8.07;1.33;;;14.10;99.90;;;;;;5045297;28;20094;-70
2022/05/28 09:42:43;;;;;;;6.60;1.33;;;14.20;99.90;;;;;;5033064;28;20145;-70
2022/05/28 09:45:23;;;;;;;9.32;1.38;;;14.20;99.90;;;;;;5019711;28;20078;-70
2022/05/28 09:47:51;;;;;;;4.97;1.30;;;14.10;99.90;;;;;;5054750;28;20040;-70
2022/05/28 09:50:26;;;;;;;7.90;1.25;;;14.00;99.90;;;;;;5058977;28;20052;-70
2022/05/28 09:56:05;;;;;;;8.15;1.30;;;14.20;99.90;;;;;;5034568;28;20143;-70
2022/05/28 09:58:35;;;;;;;9.65;1.75;;;14.20;99.90;;;;;;5051188;28;20044;-70
2022/05/28 10:01:22;;;;;;;2.90;1.00;;;14.10;99.90;;;;;;5057006;28;20037;-70
2022/05/28 10:06:34;;;;;;;5.13;1.15;;;14.00;99.90;;;;;;5045741;28;19917;-70
2022/05/28 10:09:11;;;;;;;;;;;14.20;99.90;;;;;;5053251;28;20041;-70
2022/05/28 10:11:47;;;;;;;12.00;1.85;;;14.20;99.90;;;;;;5035033;28;19943;-70
2022/05/28 10:14:16;;;;;;;5.28;1.02;;;14.10;99.90;;;;;;5054101;28;20073;-70
2022/05/28 10:16:42;;;;;;;4.65;1.40;;;14.10;99.90;;;;;;5022542;28;20036;-70
2022/05/28 10:19:34;;;;;;;;;;;14.10;99.90;;;;;;5030386;28;20036;-70
2022/05/28 10:22:02;;;;;;;7.47;1.20;;;14.00;99.90;;;;;;5052755;28;19917;-70
2022/05/28 10:24:36;;;;;;;4.78;1.20;;;13.90;99.90;;;;;;5038184;28;20060;-70
2022/05/28 10:27:01;;;;;;;10.68;1.50;;;13.80;99.90;;;;;;5046850;28;20395;-70
2022/05/28 10:29:38;;;;;;;14.18;1.75;;;13.70;99.90;;;;;;5061323;28;20089;-70
2022/05/28 10:32:26;;;;;;;6.00;1.05;;;13.60;99.90;;;;;;5030189;28;20053;-70
2022/05/28 10:35:12;;;;;;;5.10;1.50;;;13.50;99.90;;;;;;5008548;28;20244;-69
2022/05/28 10:37:37;;;;;;;5.55;1.20;;;13.50;99.90;;;;;;5025007;28;20036;-70
2022/05/28 10:40:20;;;;;;;8.93;1.63;;;13.40;99.90;;;;;;5059933;28;20055;-70
2022/05/28 10:42:47;;;;;;;13.15;1.48;;;13.40;99.90;;;;;;5023919;28;20049;-70
2022/05/28 10:45:15;;;;;;;;;;;13.50;99.90;;;;;;5057382;28;20540;-70
2022/05/28 10:47:46;;;;;;;8.63;1.63;;;13.60;99.90;;;;;;5052287;28;20016;-70
2022/05/28 10:50:18;;;;;;;5.15;1.33;;;13.60;99.90;;;;;;5063552;28;20055;-70
2022/05/28 10:53:00;;;;;;;9.77;2.25;;;13.70;99.90;;;;;;5038145;28;20035;-70
2022/05/28 10:55:53;;;;;;;7.53;1.17;;;13.80;99.90;;;;;;5042122;28;20042;-70
2022/05/28 10:58:38;;;;;;;6.43;1.48;;;13.90;99.90;;;;;;5040672;28;20134;-70
2022/05/28 11:01:21;;;;;;;3.60;1.33;;;14.10;99.90;;;;;;5035636;28;20169;-70
2022/05/28 11:04:17;;;;;;;10.55;1.67;;;14.30;99.90;;;;;;5052284;28;20124;-70
2022/05/28 11:06:55;;;;;;;7.25;0.80;;;14.50;99.90;;;;;;5045595;28;20052;-70
2022/05/28 11:09:26;;;;;;;5.07;1.50;;;14.50;99.90;;;;;;5040989;28;20052;-70
2022/05/28 11:12:27;;;;;;;4.63;0.95;;;14.50;99.90;;;;;;5045528;28;20037;-70
2022/05/28 11:15:03;;;;;;;8.27;1.35;;;14.40;99.90;;;;;;5052483;28;20532;-70
2022/05/28 11:18:03;;;;;;;10.00;1.63;;;14.30;99.90;;;;;;5049265;28;20304;-70
2022/05/28 11:20:32;;;;;;;8.63;1.10;;;14.10;99.90;;;;;;5057579;28;20333;-72
2022/05/28 11:23:06;;;;;;;7.53;1.40;;;14.00;99.90;;;;;;5036677;28;20044;-69
2022/05/28 11:26:04;;;;;;;9.32;1.48;;;14.00;99.90;;;;;;5050994;28;20399;-70
2022/05/28 11:28:51;;;;;;;9.82;1.13;;;14.10;99.90;;;;;;5023473;28;20041;-71
2022/05/28 11:31:41;;;;;;;9.00;1.08;;;14.20;99.90;;;;;;5039407;28;20102;-74
2022/05/28 11:34:15;;;;;;;2.42;0.80;;;14.20;99.90;;;;;;5057761;28;20432;-71
2022/05/28 11:36:47;;;;;;;5.78;0.80;;;14.20;99.90;;;;;;5059366;28;20501;-72
2022/05/28 11:39:23;;;;;;;3.38;1.00;;;14.10;99.90;;;;;;5065174;28;20070;-72
2022/05/28 11:42:18;;;;;;;8.90;1.25;;;14.10;99.90;;;;;;5036406;28;20527;-73
2022/05/28 11:44:49;;;;;;;5.80;0.80;;;14.10;99.90;;;;;;5040346;28;20465;-70
2022/05/28 11:47:42;;;;;;;5.68;1.02;;;14.30;99.90;;;;;;5032457;28;20033;-69
2022/05/28 11:53:45;;;;;;;7.05;1.10;;;14.60;99.90;;;;;;5051678;28;20049;-70
2022/05/28 11:56:17;;;;;;;6.30;0.73;;;14.70;99.90;;;;;;5046253;28;20071;-70
2022/05/28 11:58:51;;;;;;;10.35;1.20;;;14.80;99.90;;;;;;5040196;28;20165;-69
2022/05/28 12:01:24;;;;;;;7.78;1.23;;;14.80;99.90;;;;;;5061778;28;20033;-70
2022/05/28 12:03:52;;;;;;;7.25;1.17;;;14.90;99.90;;;;;;5060107;28;20056;-70
2022/05/28 12:06:39;;;;;;;7.43;1.45;;;15.00;99.90;;;;;;5064453;28;20037;-70
2022/05/28 12:09:07;;;;;;;4.68;0.98;;;15.20;99.90;;;;;;5067444;28;20442;-70
2022/05/28 12:11:39;;;;;;;5.47;0.98;;;15.30;99.90;;;;;;5057131;28;20677;-70
2022/05/28 12:14:20;;;;;;;8.27;0.90;;;15.40;99.90;;;;;;5054129;28;20047;-70
2022/05/28 12:16:58;;;;;;;5.32;0.93;;;15.50;99.90;;;;;;5058812;28;20036;-70
2022/05/28 12:19:24;;;;;;;7.82;1.63;;;15.50;99.90;;;;;;5039961;28;20059;-70
2022/05/28 12:21:50;;;;;;;7.20;1.15;;;15.50;99.90;;;;;;5068651;28;20040;-70
2022/05/28 12:24:19;;;;;;;9.93;1.83;;;15.50;99.90;;;;;;5063103;28;20214;-70
2022/05/28 12:29:41;;;;;;;7.40;1.10;;;15.30;99.90;;;;;;5043787;28;20106;-70
2022/05/28 12:32:09;;;;;;;3.47;1.00;;;15.20;99.90;;;;;;5063250;28;20036;-70
2022/05/28 12:34:37;;;;;;;4.90;1.00;;;15.20;99.90;;;;;;5061382;28;20102;-70
2022/05/28 12:37:12;;;;;;;6.82;1.05;;;15.20;99.90;;;;;;5062519;28;20072;-70
2022/05/28 12:39:44;;;;;;;4.63;1.05;;;15.40;99.90;;;;;;5061383;28;20348;-70
2022/05/28 12:42:20;;;;;;;5.82;0.77;;;15.50;99.90;;;;;;5055811;28;20390;-70
2022/05/28 12:44:51;;;;;;;4.00;0.85;;;15.70;99.90;;;;;;5040847;28;20045;-70
2022/05/28 12:47:28;;;;;;;8.90;1.40;;;15.90;97.70;;;;;;5052154;28;20060;-70
2022/05/28 12:50:10;;;;;;;3.00;0.75;;;15.90;82.90;;;;;;5065485;28;20033;-70
2022/05/28 12:53:04;;;;;;;2.30;0.70;;;16.00;93.00;;;;;;5061050;28;20131;-70
2022/05/28 12:55:38;;;;;;;1.92;0.50;;;16.00;94.20;;;;;;5055048;28;20040;-70
2022/05/28 12:58:24;;;;;;;2.08;0.77;;;16.10;94.30;;;;;;5059769;28;20036;-70
2022/05/28 13:00:55;;;;;;;5.10;1.05;;;16.30;93.50;;;;;;5063104;28;20519;-70
2022/05/28 13:03:24;;;;;;;3.03;1.30;;;16.40;94.90;;;;;;5056826;28;20071;-70
2022/05/28 13:06:20;;;;;;;5.18;0.82;;;16.50;92.20;;;;;;5061704;28;20119;-70
2022/05/28 13:08:53;;;;;;;4.93;1.00;;;16.70;88.10;;;;;;5062871;28;20544;-69
2022/05/28 13:11:42;;;;;;;6.45;1.42;;;16.80;91.30;;;;;;5051375;28;20044;-70
2022/05/28 13:14:34;;;;;;;9.68;1.27;;;16.60;83.00;;;;;;5051127;28;20119;-70
2022/05/28 13:17:12;;;;;;;4.03;0.98;;;16.50;89.00;;;;;;5050603;28;20131;-70
2022/05/28 13:20:22;;;;;;;3.53;0.73;;;16.30;91.80;;;;;;5070055;22;20041;-70
2022/05/28 13:23:13;;;;;;;10.60;0.95;;;16.20;90.60;;;;;;5041804;28;20781;-70
2022/05/28 13:26:15;;;;;;;4.38;0.70;;;16.00;93.40;;;;;;5034739;28;20041;-71